sensor_id;sensor_type;location;lat;lon;timestamp;pressure;altitude;pressure_sealevel;temperature;humidity
31717;BME280;18301;51.076;17.046;2023-09-19T00:04:40;99447.97;;;21.13;86.43
31717;BME280;18301;51.076;17.046;2023-09-19T00:09:44;99450.50;;;21.21;85.20
31717;BME280;18301;51.076;17.046;2023-09-19T00:14:45;99449.13;;;20.90;87.91
31717;BME280;18301;51.076;17.046;2023-09-19T00:19:47;99446.44;;;20.62;90.00
31717;BME280;18301;51.076;17.046;2023-09-19T00:24:52;99443.16;;;20.80;88.08
31717;BME280;18301;51.076;17.046;2023-09-19T00:29:54;99453.94;;;20.82;88.18
31717;BME280;18301;51.076;17.046;2023-09-19T00:34:57;99459.13;;;20.70;90.86
31717;BME280;18301;51.076;17.046;2023-09-19T00:39:59;99448.63;;;20.80;89.04
31717;BME280;18301;51.076;17.046;2023-09-19T00:45:00;99451.97;;;20.69;89.66
31717;BME280;18301;51.076;17.046;2023-09-19T00:50:05;99433.28;;;20.51;90.10
31717;BME280;18301;51.076;17.046;2023-09-19T00:55:10;99438.72;;;20.44;92.11
31717;BME280;18301;51.076;17.046;2023-09-19T01:00:12;99432.44;;;20.51;90.01
31717;BME280;18301;51.076;17.046;2023-09-19T01:05:16;99432.69;;;20.56;90.06
31717;BME280;18301;51.076;17.046;2023-09-19T01:10:20;99426.66;;;20.67;89.54
31717;BME280;18301;51.076;17.046;2023-09-19T01:15:40;99423.28;;;20.72;89.82
31717;BME280;18301;51.076;17.046;2023-09-19T01:21:26;99434.03;;;20.66;89.55
31717;BME280;18301;51.076;17.046;2023-09-19T01:27:42;99429.00;;;20.77;89.41
31717;BME280;18301;51.076;17.046;2023-09-19T01:32:11;99433.91;;;20.81;89.79
31717;BME280;18301;51.076;17.046;2023-09-19T01:37:17;99439.97;;;20.42;93.09
31717;BME280;18301;51.076;17.046;2023-09-19T01:42:42;99428.97;;;20.35;97.03
31717;BME280;18301;51.076;17.046;2023-09-19T01:47:46;99428.03;;;20.28;96.84
31717;BME280;18301;51.076;17.046;2023-09-19T01:52:56;99428.34;;;20.12;96.40
31717;BME280;18301;51.076;17.046;2023-09-19T01:58:06;99418.84;;;20.08;97.76
31717;BME280;18301;51.076;17.046;2023-09-19T02:03:10;99425.25;;;19.93;100.00
31717;BME280;18301;51.076;17.046;2023-09-19T02:08:16;99422.78;;;19.98;98.59
31717;BME280;18301;51.076;17.046;2023-09-19T02:13:19;99434.00;;;20.10;99.83
31717;BME280;18301;51.076;17.046;2023-09-19T02:18:21;99435.50;;;20.13;99.54
31717;BME280;18301;51.076;17.046;2023-09-19T02:23:23;99429.31;;;20.04;99.38
31717;BME280;18301;51.076;17.046;2023-09-19T02:28:24;99427.50;;;20.11;100.00
31717;BME280;18301;51.076;17.046;2023-09-19T02:33:31;99445.56;;;20.06;100.00
31717;BME280;18301;51.076;17.046;2023-09-19T02:38:34;99442.13;;;19.97;100.00
31717;BME280;18301;51.076;17.046;2023-09-19T02:43:36;99426.09;;;19.94;100.00
31717;BME280;18301;51.076;17.046;2023-09-19T02:48:38;99424.09;;;19.81;100.00
31717;BME280;18301;51.076;17.046;2023-09-19T02:53:39;99406.56;;;19.75;100.00
31717;BME280;18301;51.076;17.046;2023-09-19T02:58:41;99392.31;;;19.80;100.00
31717;BME280;18301;51.076;17.046;2023-09-19T03:03:44;99393.13;;;19.81;100.00
31717;BME280;18301;51.076;17.046;2023-09-19T03:08:46;99401.81;;;19.84;100.00
31717;BME280;18301;51.076;17.046;2023-09-19T03:13:54;99408.78;;;19.87;100.00
31717;BME280;18301;51.076;17.046;2023-09-19T03:18:55;99405.72;;;19.75;100.00
31717;BME280;18301;51.076;17.046;2023-09-19T03:23:57;99410.97;;;19.76;100.00
31717;BME280;18301;51.076;17.046;2023-09-19T03:28:58;99405.31;;;19.78;100.00
31717;BME280;18301;51.076;17.046;2023-09-19T03:34:00;99409.03;;;19.70;100.00
31717;BME280;18301;51.076;17.046;2023-09-19T03:39:02;99417.47;;;19.69;100.00
31717;BME280;18301;51.076;17.046;2023-09-19T03:44:06;99422.53;;;19.72;100.00
31717;BME280;18301;51.076;17.046;2023-09-19T03:49:07;99417.91;;;19.72;100.00
31717;BME280;18301;51.076;17.046;2023-09-19T03:54:10;99421.47;;;19.73;100.00
31717;BME280;18301;51.076;17.046;2023-09-19T03:59:11;99414.50;;;19.70;100.00
31717;BME280;18301;51.076;17.046;2023-09-19T04:04:13;99423.19;;;19.74;100.00
31717;BME280;18301;51.076;17.046;2023-09-19T04:09:15;99417.06;;;19.72;100.00
31717;BME280;18301;51.076;17.046;2023-09-19T04:14:17;99418.22;;;19.63;100.00
31717;BME280;18301;51.076;17.046;2023-09-19T04:19:18;99416.06;;;19.58;100.00
31717;BME280;18301;51.076;17.046;2023-09-19T04:24:20;99413.13;;;19.60;100.00
31717;BME280;18301;51.076;17.046;2023-09-19T04:29:21;99410.59;;;19.58;100.00
31717;BME280;18301;51.076;17.046;2023-09-19T04:34:23;99420.22;;;19.54;100.00
31717;BME280;18301;51.076;17.046;2023-09-19T04:39:26;99422.78;;;19.55;100.00
31717;BME280;18301;51.076;17.046;2023-09-19T04:44:28;99434.50;;;19.49;100.00
31717;BME280;18301;51.076;17.046;2023-09-19T04:49:29;99429.03;;;19.49;100.00
31717;BME280;18301;51.076;17.046;2023-09-19T04:54:31;99441.13;;;19.40;100.00
31717;BME280;18301;51.076;17.046;2023-09-19T04:59:32;99448.28;;;19.41;100.00
31717;BME280;18301;51.076;17.046;2023-09-19T05:04:34;99442.81;;;19.41;100.00
31717;BME280;18301;51.076;17.046;2023-09-19T05:09:35;99447.00;;;19.37;100.00
31717;BME280;18301;51.076;17.046;2023-09-19T05:14:38;99442.16;;;19.39;100.00
31717;BME280;18301;51.076;17.046;2023-09-19T05:19:41;99445.28;;;19.36;100.00
31717;BME280;18301;51.076;17.046;2023-09-19T05:24:43;99447.63;;;19.39;100.00
31717;BME280;18301;51.076;17.046;2023-09-19T05:29:45;99462.25;;;19.46;100.00
31717;BME280;18301;51.076;17.046;2023-09-19T05:34:46;99470.72;;;19.51;100.00
31717;BME280;18301;51.076;17.046;2023-09-19T05:39:54;99464.72;;;19.41;100.00
31717;BME280;18301;51.076;17.046;2023-09-19T05:44:55;99484.06;;;19.40;100.00
31717;BME280;18301;51.076;17.046;2023-09-19T05:49:58;99489.16;;;19.43;100.00
31717;BME280;18301;51.076;17.046;2023-09-19T05:55:00;99495.53;;;19.50;100.00
31717;BME280;18301;51.076;17.046;2023-09-19T06:00:02;99512.94;;;19.64;100.00
31717;BME280;18301;51.076;17.046;2023-09-19T06:05:10;99505.50;;;19.72;100.00
31717;BME280;18301;51.076;17.046;2023-09-19T06:10:12;99490.47;;;19.83;100.00
31717;BME280;18301;51.076;17.046;2023-09-19T06:15:15;99499.06;;;20.02;100.00
31717;BME280;18301;51.076;17.046;2023-09-19T06:20:17;99522.78;;;20.16;100.00
31717;BME280;18301;51.076;17.046;2023-09-19T06:25:19;99524.50;;;20.17;100.00
31717;BME280;18301;51.076;17.046;2023-09-19T06:30:22;99511.81;;;20.16;100.00
31717;BME280;18301;51.076;17.046;2023-09-19T06:35:28;99517.69;;;20.13;100.00
31717;BME280;18301;51.076;17.046;2023-09-19T06:40:31;99523.94;;;20.07;100.00
31717;BME280;18301;51.076;17.046;2023-09-19T06:45:32;99529.09;;;20.16;100.00
31717;BME280;18301;51.076;17.046;2023-09-19T06:50:34;99535.44;;;20.17;99.98
31717;BME280;18301;51.076;17.046;2023-09-19T06:55:37;99544.94;;;20.42;99.29
31717;BME280;18301;51.076;17.046;2023-09-19T07:00:38;99561.75;;;20.39;97.56
31717;BME280;18301;51.076;17.046;2023-09-19T07:05:40;99562.81;;;20.60;97.20
31717;BME280;18301;51.076;17.046;2023-09-19T07:10:42;99566.81;;;20.85;92.04
31717;BME280;18301;51.076;17.046;2023-09-19T07:15:50;99574.56;;;21.10;91.54
31717;BME280;18301;51.076;17.046;2023-09-19T07:20:57;99581.31;;;21.14;89.64
31717;BME280;18301;51.076;17.046;2023-09-19T07:26:02;99576.72;;;21.21;88.95
31717;BME280;18301;51.076;17.046;2023-09-19T07:31:06;99586.41;;;21.17;85.81
31717;BME280;18301;51.076;17.046;2023-09-19T07:36:11;99586.41;;;21.17;85.57
31717;BME280;18301;51.076;17.046;2023-09-19T07:41:17;99580.28;;;20.87;86.07
31717;BME280;18301;51.076;17.046;2023-09-19T07:46:18;99593.34;;;21.41;83.99
31717;BME280;18301;51.076;17.046;2023-09-19T07:51:20;99595.03;;;21.49;83.69
31717;BME280;18301;51.076;17.046;2023-09-19T07:56:21;99608.38;;;21.52;84.59
31717;BME280;18301;51.076;17.046;2023-09-19T08:01:24;99605.00;;;21.50;83.13
31717;BME280;18301;51.076;17.046;2023-09-19T08:06:26;99623.44;;;21.69;80.10
31717;BME280;18301;51.076;17.046;2023-09-19T08:11:31;99630.50;;;21.44;81.57
31717;BME280;18301;51.076;17.046;2023-09-19T08:16:34;99638.91;;;21.35;80.47
31717;BME280;18301;51.076;17.046;2023-09-19T08:21:36;99654.50;;;21.35;80.61
31717;BME280;18301;51.076;17.046;2023-09-19T08:26:37;99658.44;;;21.54;81.00
31717;BME280;18301;51.076;17.046;2023-09-19T08:31:39;99656.13;;;21.29;80.86
31717;BME280;18301;51.076;17.046;2023-09-19T08:36:41;99661.03;;;21.34;80.02
31717;BME280;18301;51.076;17.046;2023-09-19T08:41:45;99655.81;;;21.39;80.18
31717;BME280;18301;51.076;17.046;2023-09-19T08:46:47;99666.81;;;21.46;80.67
31717;BME280;18301;51.076;17.046;2023-09-19T08:51:55;99665.09;;;21.38;78.50
31717;BME280;18301;51.076;17.046;2023-09-19T08:57:00;99674.50;;;21.57;78.23
31717;BME280;18301;51.076;17.046;2023-09-19T09:02:13;99679.56;;;21.53;78.96
31717;BME280;18301;51.076;17.046;2023-09-19T09:07:16;99688.38;;;21.21;79.01
31717;BME280;18301;51.076;17.046;2023-09-19T09:12:18;99681.19;;;21.48;77.23
31717;BME280;18301;51.076;17.046;2023-09-19T09:17:20;99700.78;;;21.38;78.41
31717;BME280;18301;51.076;17.046;2023-09-19T09:22:22;99708.94;;;21.31;78.47
31717;BME280;18301;51.076;17.046;2023-09-19T09:27:25;99718.38;;;21.50;78.36
31717;BME280;18301;51.076;17.046;2023-09-19T09:32:28;99712.78;;;21.65;77.68
31717;BME280;18301;51.076;17.046;2023-09-19T09:37:30;99718.56;;;22.18;73.90
31717;BME280;18301;51.076;17.046;2023-09-19T09:42:36;99720.91;;;22.21;75.78
31717;BME280;18301;51.076;17.046;2023-09-19T09:47:47;99713.31;;;22.30;74.60
31717;BME280;18301;51.076;17.046;2023-09-19T09:52:56;99735.28;;;22.23;74.94
31717;BME280;18301;51.076;17.046;2023-09-19T09:58:17;99728.16;;;22.36;74.95
31717;BME280;18301;51.076;17.046;2023-09-19T10:03:20;99741.97;;;22.08;74.83
31717;BME280;18301;51.076;17.046;2023-09-19T10:08:24;99743.22;;;22.05;74.41
31717;BME280;18301;51.076;17.046;2023-09-19T10:13:35;99742.31;;;22.33;72.65
31717;BME280;18301;51.076;17.046;2023-09-19T10:18:40;99751.34;;;22.88;71.05
31717;BME280;18301;51.076;17.046;2023-09-19T10:23:45;99751.19;;;22.41;69.31
31717;BME280;18301;51.076;17.046;2023-09-19T10:28:49;99748.91;;;22.45;70.55
31717;BME280;18301;51.076;17.046;2023-09-19T10:33:53;99762.59;;;21.97;72.44
31717;BME280;18301;51.076;17.046;2023-09-19T10:38:56;99757.91;;;21.91;72.26
31717;BME280;18301;51.076;17.046;2023-09-19T10:44:04;99776.16;;;21.98;72.12
31717;BME280;18301;51.076;17.046;2023-09-19T10:49:10;99776.72;;;22.22;70.20
31717;BME280;18301;51.076;17.046;2023-09-19T10:54:16;99767.59;;;22.69;67.72
31717;BME280;18301;51.076;17.046;2023-09-19T10:59:20;99783.75;;;22.99;65.90
31717;BME280;18301;51.076;17.046;2023-09-19T11:14:44;99776.94;;;22.82;62.79
31717;BME280;18301;51.076;17.046;2023-09-19T11:30:41;99770.44;;;23.23;62.73
31717;BME280;18301;51.076;17.046;2023-09-19T11:36:04;99765.16;;;23.41;61.19
31717;BME280;18301;51.076;17.046;2023-09-19T11:46:24;99777.22;;;23.20;58.37
31717;BME280;18301;51.076;17.046;2023-09-19T11:51:26;99789.69;;;23.03;59.80
31717;BME280;18301;51.076;17.046;2023-09-19T11:56:28;99790.56;;;23.03;58.50
31717;BME280;18301;51.076;17.046;2023-09-19T12:01:31;99784.22;;;23.09;57.90
31717;BME280;18301;51.076;17.046;2023-09-19T12:06:35;99788.44;;;23.32;56.51
31717;BME280;18301;51.076;17.046;2023-09-19T12:11:42;99770.22;;;23.57;55.69
31717;BME280;18301;51.076;17.046;2023-09-19T12:16:54;99773.63;;;23.73;55.57
31717;BME280;18301;51.076;17.046;2023-09-19T12:22:02;99778.28;;;23.65;53.93
31717;BME280;18301;51.076;17.046;2023-09-19T12:27:06;99778.28;;;23.52;54.25
31717;BME280;18301;51.076;17.046;2023-09-19T12:32:09;99772.38;;;23.55;52.28
31717;BME280;18301;51.076;17.046;2023-09-19T12:37:14;99776.56;;;23.91;51.31
31717;BME280;18301;51.076;17.046;2023-09-19T12:42:25;99767.25;;;23.79;51.11
31717;BME280;18301;51.076;17.046;2023-09-19T12:47:31;99774.44;;;23.66;50.82
31717;BME280;18301;51.076;17.046;2023-09-19T12:52:38;99785.06;;;23.70;51.08
31717;BME280;18301;51.076;17.046;2023-09-19T12:57:40;99767.44;;;23.97;51.64
31717;BME280;18301;51.076;17.046;2023-09-19T13:08:20;99755.78;;;23.88;49.52
31717;BME280;18301;51.076;17.046;2023-09-19T13:13:22;99751.09;;;24.02;50.38
31717;BME280;18301;51.076;17.046;2023-09-19T13:18:26;99742.84;;;23.96;49.89
31717;BME280;18301;51.076;17.046;2023-09-19T13:23:28;99755.78;;;23.88;49.71
31717;BME280;18301;51.076;17.046;2023-09-19T13:28:29;99749.66;;;23.86;50.40
31717;BME280;18301;51.076;17.046;2023-09-19T13:33:31;99744.31;;;24.05;49.61
31717;BME280;18301;51.076;17.046;2023-09-19T13:38:33;99735.44;;;23.96;48.76
31717;BME280;18301;51.076;17.046;2023-09-19T13:43:39;99733.97;;;23.74;50.39
31717;BME280;18301;51.076;17.046;2023-09-19T13:48:40;99737.16;;;23.84;50.06
31717;BME280;18301;51.076;17.046;2023-09-19T13:53:42;99740.56;;;23.73;51.29
31717;BME280;18301;51.076;17.046;2023-09-19T13:58:44;99737.59;;;23.81;52.16
31717;BME280;18301;51.076;17.046;2023-09-19T14:03:45;99723.59;;;23.82;51.24
31717;BME280;18301;51.076;17.046;2023-09-19T14:08:48;99732.09;;;23.81;51.33
31717;BME280;18301;51.076;17.046;2023-09-19T14:13:52;99729.75;;;23.78;51.75
31717;BME280;18301;51.076;17.046;2023-09-19T14:18:57;99737.81;;;23.73;49.44
31717;BME280;18301;51.076;17.046;2023-09-19T14:24:02;99724.03;;;23.66;50.11
31717;BME280;18301;51.076;17.046;2023-09-19T14:29:04;99731.66;;;23.84;50.62
31717;BME280;18301;51.076;17.046;2023-09-19T14:34:07;99740.13;;;23.76;50.67
31717;BME280;18301;51.076;17.046;2023-09-19T14:39:11;99731.00;;;23.88;50.47
31717;BME280;18301;51.076;17.046;2023-09-19T14:44:13;99736.53;;;23.82;50.86
31717;BME280;18301;51.076;17.046;2023-09-19T14:49:14;99732.47;;;23.91;50.64
31717;BME280;18301;51.076;17.046;2023-09-19T14:54:18;99743.50;;;23.91;51.38
31717;BME280;18301;51.076;17.046;2023-09-19T14:59:20;99745.00;;;23.67;51.99
31717;BME280;18301;51.076;17.046;2023-09-19T15:04:21;99741.38;;;23.66;52.08
31717;BME280;18301;51.076;17.046;2023-09-19T15:09:24;99742.72;;;23.44;52.71
31717;BME280;18301;51.076;17.046;2023-09-19T15:14:27;99751.59;;;23.39;52.37
31717;BME280;18301;51.076;17.046;2023-09-19T15:19:31;99749.06;;;23.38;52.22
31717;BME280;18301;51.076;17.046;2023-09-19T15:24:32;99745.03;;;23.47;52.99
31717;BME280;18301;51.076;17.046;2023-09-19T15:29:34;99745.69;;;23.23;53.66
31717;BME280;18301;51.076;17.046;2023-09-19T15:34:35;99751.81;;;23.11;53.05
31717;BME280;18301;51.076;17.046;2023-09-19T15:39:37;99752.38;;;22.93;53.83
31717;BME280;18301;51.076;17.046;2023-09-19T15:44:38;99749.84;;;22.92;53.49
31717;BME280;18301;51.076;17.046;2023-09-19T15:49:40;99750.53;;;23.07;53.98
31717;BME280;18301;51.076;17.046;2023-09-19T15:54:41;99750.53;;;23.07;54.04
31717;BME280;18301;51.076;17.046;2023-09-19T15:59:46;99758.16;;;23.05;54.11
31717;BME280;18301;51.076;17.046;2023-09-19T16:04:48;99761.56;;;23.07;53.87
31717;BME280;18301;51.076;17.046;2023-09-19T16:09:49;99757.88;;;22.93;54.19
31717;BME280;18301;51.076;17.046;2023-09-19T16:14:51;99762.53;;;22.80;54.70
31717;BME280;18301;51.076;17.046;2023-09-19T16:19:52;99767.13;;;22.66;55.24
31717;BME280;18301;51.076;17.046;2023-09-19T16:24:55;99770.69;;;22.53;55.76
31717;BME280;18301;51.076;17.046;2023-09-19T16:29:57;99777.22;;;22.39;56.08
31717;BME280;18301;51.076;17.046;2023-09-19T16:34:58;99768.72;;;22.34;56.16
31717;BME280;18301;51.076;17.046;2023-09-19T16:40:00;99781.13;;;22.16;56.63
31717;BME280;18301;51.076;17.046;2023-09-19T16:45:02;99783.38;;;22.06;57.03
31717;BME280;18301;51.076;17.046;2023-09-19T16:50:04;99793.06;;;22.02;57.16
31717;BME280;18301;51.076;17.046;2023-09-19T16:55:07;99799.59;;;22.01;57.20
31717;BME280;18301;51.076;17.046;2023-09-19T17:00:09;99806.16;;;22.00;57.45
31717;BME280;18301;51.076;17.046;2023-09-19T17:05:11;99803.16;;;21.95;58.13
31717;BME280;18301;51.076;17.046;2023-09-19T17:10:14;99813.06;;;21.89;58.01
31717;BME280;18301;51.076;17.046;2023-09-19T17:15:15;99808.31;;;21.76;58.14
31717;BME280;18301;51.076;17.046;2023-09-19T17:20:17;99817.34;;;21.70;59.21
31717;BME280;18301;51.076;17.046;2023-09-19T17:25:19;99812.81;;;21.56;59.71
31717;BME280;18301;51.076;17.046;2023-09-19T17:30:21;99820.94;;;21.43;60.49
31717;BME280;18301;51.076;17.046;2023-09-19T17:35:23;99826.28;;;21.29;61.42
31717;BME280;18301;51.076;17.046;2023-09-19T17:40:25;99830.81;;;21.15;61.65
31717;BME280;18301;51.076;17.046;2023-09-19T17:45:27;99828.97;;;21.01;63.20
31717;BME280;18301;51.076;17.046;2023-09-19T17:50:28;99835.16;;;20.88;63.18
31717;BME280;18301;51.076;17.046;2023-09-19T17:55:30;99840.13;;;20.78;64.19
31717;BME280;18301;51.076;17.046;2023-09-19T18:00:32;99848.84;;;20.67;64.96
31717;BME280;18301;51.076;17.046;2023-09-19T18:05:35;99852.63;;;20.66;65.51
31717;BME280;18301;51.076;17.046;2023-09-19T18:10:37;99853.00;;;20.63;65.90
31717;BME280;18301;51.076;17.046;2023-09-19T18:15:39;99857.53;;;20.56;66.59
31717;BME280;18301;51.076;17.046;2023-09-19T18:20:41;99859.09;;;20.50;66.89
31717;BME280;18301;51.076;17.046;2023-09-19T18:25:42;99875.47;;;20.43;67.24
31717;BME280;18301;51.076;17.046;2023-09-19T18:30:45;99869.91;;;20.37;67.69
31717;BME280;18301;51.076;17.046;2023-09-19T18:35:47;99866.41;;;20.28;68.06
31717;BME280;18301;51.076;17.046;2023-09-19T18:40:48;99870.47;;;20.17;68.80
31717;BME280;18301;51.076;17.046;2023-09-19T18:45:56;99868.56;;;20.03;69.14
31717;BME280;18301;51.076;17.046;2023-09-19T18:51:06;99869.22;;;19.90;69.54
31717;BME280;18301;51.076;17.046;2023-09-19T18:56:09;99875.25;;;19.86;69.66
31717;BME280;18301;51.076;17.046;2023-09-19T19:01:15;99875.34;;;19.77;70.06
31717;BME280;18301;51.076;17.046;2023-09-19T19:06:18;99878.34;;;19.68;70.51
31717;BME280;18301;51.076;17.046;2023-09-19T19:11:19;99888.66;;;19.58;70.81
31717;BME280;18301;51.076;17.046;2023-09-19T19:16:23;99890.78;;;19.47;71.41
31717;BME280;18301;51.076;17.046;2023-09-19T19:21:28;99882.63;;;19.39;71.90
31717;BME280;18301;51.076;17.046;2023-09-19T19:26:29;99893.94;;;19.36;72.28
31717;BME280;18301;51.076;17.046;2023-09-19T19:31:32;99892.16;;;19.28;73.01
31717;BME280;18301;51.076;17.046;2023-09-19T19:36:36;99892.69;;;19.24;73.13
31717;BME280;18301;51.076;17.046;2023-09-19T19:41:37;99907.06;;;19.18;73.47
31717;BME280;18301;51.076;17.046;2023-09-19T19:46:40;99912.78;;;19.08;73.81
31717;BME280;18301;51.076;17.046;2023-09-19T19:51:42;99905.38;;;18.94;74.19
31717;BME280;18301;51.076;17.046;2023-09-19T19:56:46;99907.28;;;18.85;74.02
31717;BME280;18301;51.076;17.046;2023-09-19T20:01:48;99909.53;;;18.81;74.33
31717;BME280;18301;51.076;17.046;2023-09-19T20:06:50;99909.00;;;18.78;74.83
31717;BME280;18301;51.076;17.046;2023-09-19T20:11:52;99919.66;;;18.73;75.15
31717;BME280;18301;51.076;17.046;2023-09-19T20:16:56;99914.50;;;18.70;75.32
31717;BME280;18301;51.076;17.046;2023-09-19T20:22:00;99921.38;;;18.57;75.82
31717;BME280;18301;51.076;17.046;2023-09-19T20:27:07;99918.69;;;18.49;76.19
31717;BME280;18301;51.076;17.046;2023-09-19T20:32:08;99915.16;;;18.32;76.86
31717;BME280;18301;51.076;17.046;2023-09-19T20:37:10;99923.22;;;18.26;76.97
31717;BME280;18301;51.076;17.046;2023-09-19T20:42:12;99929.03;;;18.14;77.46
31717;BME280;18301;51.076;17.046;2023-09-19T20:47:13;99931.06;;;18.12;77.68
31717;BME280;18301;51.076;17.046;2023-09-19T20:52:16;99929.53;;;18.10;77.92
31717;BME280;18301;51.076;17.046;2023-09-19T20:57:18;99939.59;;;18.09;78.16
31717;BME280;18301;51.076;17.046;2023-09-19T21:02:19;99941.34;;;18.02;78.35
31717;BME280;18301;51.076;17.046;2023-09-19T21:07:21;99943.06;;;17.95;78.52
31717;BME280;18301;51.076;17.046;2023-09-19T21:12:23;99939.63;;;17.93;78.85
31717;BME280;18301;51.076;17.046;2023-09-19T21:17:24;99948.66;;;17.85;78.79
31717;BME280;18301;51.076;17.046;2023-09-19T21:22:27;99950.00;;;17.73;79.51
31717;BME280;18301;51.076;17.046;2023-09-19T21:27:29;99951.56;;;17.67;79.41
31717;BME280;18301;51.076;17.046;2023-09-19T21:32:32;99948.31;;;17.56;80.09
31717;BME280;18301;51.076;17.046;2023-09-19T21:37:34;99948.09;;;17.33;82.55
31717;BME280;18301;51.076;17.046;2023-09-19T21:42:35;99945.38;;;17.41;80.87
31717;BME280;18301;51.076;17.046;2023-09-19T21:47:38;99942.00;;;17.47;80.58
31717;BME280;18301;51.076;17.046;2023-09-19T21:52:40;99939.44;;;17.54;80.30
31717;BME280;18301;51.076;17.046;2023-09-19T21:57:41;99942.66;;;17.57;79.92
31717;BME280;18301;51.076;17.046;2023-09-19T22:02:43;99947.97;;;17.59;79.50
31717;BME280;18301;51.076;17.046;2023-09-19T22:07:44;99944.38;;;17.50;79.26
31717;BME280;18301;51.076;17.046;2023-09-19T22:12:46;99952.19;;;17.29;79.23
31717;BME280;18301;51.076;17.046;2023-09-19T22:17:48;99953.38;;;17.26;78.67
31717;BME280;18301;51.076;17.046;2023-09-19T22:22:49;99946.56;;;17.22;78.51
31717;BME280;18301;51.076;17.046;2023-09-19T22:27:53;99950.81;;;17.24;78.12
31717;BME280;18301;51.076;17.046;2023-09-19T22:32:54;99954.88;;;17.20;78.13
31717;BME280;18301;51.076;17.046;2023-09-19T22:37:57;99956.06;;;17.18;77.96
31717;BME280;18301;51.076;17.046;2023-09-19T22:43:14;99954.00;;;17.12;77.70
31717;BME280;18301;51.076;17.046;2023-09-19T22:48:16;99955.88;;;17.11;77.89
31717;BME280;18301;51.076;17.046;2023-09-19T22:53:17;99953.81;;;17.05;77.77
31717;BME280;18301;51.076;17.046;2023-09-19T22:58:21;99961.31;;;16.95;77.83
31717;BME280;18301;51.076;17.046;2023-09-19T23:03:24;99964.63;;;16.80;77.96
31717;BME280;18301;51.076;17.046;2023-09-19T23:08:27;99970.41;;;16.77;77.86
31717;BME280;18301;51.076;17.046;2023-09-19T23:13:29;99976.41;;;16.81;77.87
31717;BME280;18301;51.076;17.046;2023-09-19T23:18:34;99976.81;;;16.68;77.85
31717;BME280;18301;51.076;17.046;2023-09-19T23:23:37;99982.91;;;16.62;78.18
31717;BME280;18301;51.076;17.046;2023-09-19T23:28:42;99978.50;;;16.61;78.27
31717;BME280;18301;51.076;17.046;2023-09-19T23:33:49;99972.66;;;16.56;78.02
31717;BME280;18301;51.076;17.046;2023-09-19T23:38:51;99980.16;;;16.54;77.82
31717;BME280;18301;51.076;17.046;2023-09-19T23:43:58;99987.22;;;16.39;78.28
31717;BME280;18301;51.076;17.046;2023-09-19T23:49:00;99981.94;;;16.37;78.04
31717;BME280;18301;51.076;17.046;2023-09-19T23:54:04;99982.09;;;16.36;78.05
31717;BME280;18301;51.076;17.046;2023-09-19T23:59:08;99984.13;;;16.33;77.82
